sensor_id;sensor_type;location;lat;lon;timestamp;P1;durP1;ratioP1;P2;durP2;ratioP2
9330;SDS011;4704;50.470;12.072;2023-06-24T00:00:57;2.70;;;2.50;;
9330;SDS011;4704;50.470;12.072;2023-06-24T00:03:25;2.70;;;2.50;;
9330;SDS011;4704;50.470;12.072;2023-06-24T00:05:52;2.72;;;2.53;;
9330;SDS011;4704;50.470;12.072;2023-06-24T00:08:23;5.78;;;2.70;;
9330;SDS011;4704;50.470;12.072;2023-06-24T00:10:59;2.63;;;2.47;;
9330;SDS011;4704;50.470;12.072;2023-06-24T00:13:27;2.80;;;2.60;;
9330;SDS011;4704;50.470;12.072;2023-06-24T00:15:55;4.93;;;2.80;;
9330;SDS011;4704;50.470;12.072;2023-06-24T00:18:23;2.30;;;2.20;;
9330;SDS011;4704;50.470;12.072;2023-06-24T00:20:54;2.53;;;2.28;;
9330;SDS011;4704;50.470;12.072;2023-06-24T00:23:24;2.47;;;2.35;;
9330;SDS011;4704;50.470;12.072;2023-06-24T00:25:52;2.22;;;2.10;;
9330;SDS011;4704;50.470;12.072;2023-06-24T00:28:20;2.50;;;2.30;;
9330;SDS011;4704;50.470;12.072;2023-06-24T00:30:47;2.50;;;2.30;;
9330;SDS011;4704;50.470;12.072;2023-06-24T00:33:15;3.13;;;2.20;;
9330;SDS011;4704;50.470;12.072;2023-06-24T00:35:44;2.67;;;2.47;;
9330;SDS011;4704;50.470;12.072;2023-06-24T00:38:12;2.60;;;2.40;;
9330;SDS011;4704;50.470;12.072;2023-06-24T00:40:41;2.58;;;2.35;;
9330;SDS011;4704;50.470;12.072;2023-06-24T00:43:09;2.50;;;2.30;;
9330;SDS011;4704;50.470;12.072;2023-06-24T00:45:37;3.17;;;2.88;;
9330;SDS011;4704;50.470;12.072;2023-06-24T00:48:04;2.85;;;2.60;;
9330;SDS011;4704;50.470;12.072;2023-06-24T00:50:32;2.70;;;2.50;;
9330;SDS011;4704;50.470;12.072;2023-06-24T00:53:02;3.65;;;2.50;;
9330;SDS011;4704;50.470;12.072;2023-06-24T00:55:30;3.20;;;2.70;;
9330;SDS011;4704;50.470;12.072;2023-06-24T00:57:59;2.83;;;2.63;;
9330;SDS011;4704;50.470;12.072;2023-06-24T01:00:27;2.67;;;2.47;;
9330;SDS011;4704;50.470;12.072;2023-06-24T01:02:54;2.55;;;2.35;;
9330;SDS011;4704;50.470;12.072;2023-06-24T01:05:22;2.97;;;2.50;;
9330;SDS011;4704;50.470;12.072;2023-06-24T01:07:50;3.08;;;2.80;;
9330;SDS011;4704;50.470;12.072;2023-06-24T01:10:21;3.10;;;2.80;;
9330;SDS011;4704;50.470;12.072;2023-06-24T01:12:49;2.70;;;2.50;;
9330;SDS011;4704;50.470;12.072;2023-06-24T01:15:18;2.97;;;2.70;;
9330;SDS011;4704;50.470;12.072;2023-06-24T01:17:48;2.55;;;2.38;;
9330;SDS011;4704;50.470;12.072;2023-06-24T01:20:18;3.10;;;2.90;;
9330;SDS011;4704;50.470;12.072;2023-06-24T01:22:57;3.78;;;2.80;;
9330;SDS011;4704;50.470;12.072;2023-06-24T01:25:40;3.00;;;2.80;;
9330;SDS011;4704;50.470;12.072;2023-06-24T01:28:22;3.45;;;2.90;;
9330;SDS011;4704;50.470;12.072;2023-06-24T01:30:57;3.53;;;3.00;;
9330;SDS011;4704;50.470;12.072;2023-06-24T01:33:32;2.88;;;2.50;;
9330;SDS011;4704;50.470;12.072;2023-06-24T01:36:01;3.20;;;2.90;;
9330;SDS011;4704;50.470;12.072;2023-06-24T01:38:31;2.92;;;2.72;;
9330;SDS011;4704;50.470;12.072;2023-06-24T01:40:59;3.78;;;2.72;;
9330;SDS011;4704;50.470;12.072;2023-06-24T01:43:27;4.90;;;3.30;;
9330;SDS011;4704;50.470;12.072;2023-06-24T01:45:55;2.97;;;2.72;;
9330;SDS011;4704;50.470;12.072;2023-06-24T01:48:24;3.05;;;2.85;;
9330;SDS011;4704;50.470;12.072;2023-06-24T01:50:57;3.10;;;2.90;;
9330;SDS011;4704;50.470;12.072;2023-06-24T01:53:26;3.15;;;2.90;;
9330;SDS011;4704;50.470;12.072;2023-06-24T01:55:54;2.95;;;2.75;;
9330;SDS011;4704;50.470;12.072;2023-06-24T01:58:24;3.78;;;2.80;;
9330;SDS011;4704;50.470;12.072;2023-06-24T02:00:52;2.92;;;2.72;;
9330;SDS011;4704;50.470;12.072;2023-06-24T02:03:20;3.65;;;2.88;;
9330;SDS011;4704;50.470;12.072;2023-06-24T02:05:48;2.88;;;2.50;;
9330;SDS011;4704;50.470;12.072;2023-06-24T02:08:18;3.13;;;2.90;;
9330;SDS011;4704;50.470;12.072;2023-06-24T02:10:47;2.83;;;2.60;;
9330;SDS011;4704;50.470;12.072;2023-06-24T02:13:16;3.85;;;3.00;;
9330;SDS011;4704;50.470;12.072;2023-06-24T02:15:43;3.10;;;2.80;;
9330;SDS011;4704;50.470;12.072;2023-06-24T02:18:12;3.85;;;3.10;;
9330;SDS011;4704;50.470;12.072;2023-06-24T02:20:42;3.33;;;3.03;;
9330;SDS011;4704;50.470;12.072;2023-06-24T02:23:10;3.33;;;2.97;;
9330;SDS011;4704;50.470;12.072;2023-06-24T02:25:40;4.57;;;3.03;;
9330;SDS011;4704;50.470;12.072;2023-06-24T02:28:09;3.13;;;2.83;;
9330;SDS011;4704;50.470;12.072;2023-06-24T02:30:37;4.53;;;3.08;;
9330;SDS011;4704;50.470;12.072;2023-06-24T02:33:05;3.13;;;2.90;;
9330;SDS011;4704;50.470;12.072;2023-06-24T02:35:34;3.00;;;2.80;;
9330;SDS011;4704;50.470;12.072;2023-06-24T02:38:02;2.97;;;2.78;;
9330;SDS011;4704;50.470;12.072;2023-06-24T02:40:29;4.47;;;2.70;;
9330;SDS011;4704;50.470;12.072;2023-06-24T02:42:59;3.13;;;2.83;;
9330;SDS011;4704;50.470;12.072;2023-06-24T02:45:27;3.22;;;2.70;;
9330;SDS011;4704;50.470;12.072;2023-06-24T02:47:55;3.00;;;2.75;;
9330;SDS011;4704;50.470;12.072;2023-06-24T02:50:24;4.95;;;3.10;;
9330;SDS011;4704;50.470;12.072;2023-06-24T02:52:53;3.20;;;2.90;;
9330;SDS011;4704;50.470;12.072;2023-06-24T02:55:22;3.78;;;3.17;;
9330;SDS011;4704;50.470;12.072;2023-06-24T02:57:50;3.35;;;2.97;;
9330;SDS011;4704;50.470;12.072;2023-06-24T03:00:20;3.33;;;3.03;;
9330;SDS011;4704;50.470;12.072;2023-06-24T03:02:48;3.38;;;2.97;;
9330;SDS011;4704;50.470;12.072;2023-06-24T03:05:16;3.20;;;2.95;;
9330;SDS011;4704;50.470;12.072;2023-06-24T03:07:45;4.53;;;2.90;;
9330;SDS011;4704;50.470;12.072;2023-06-24T03:10:13;4.70;;;2.97;;
9330;SDS011;4704;50.470;12.072;2023-06-24T03:12:41;3.08;;;2.80;;
9330;SDS011;4704;50.470;12.072;2023-06-24T03:15:09;3.20;;;2.90;;
9330;SDS011;4704;50.470;12.072;2023-06-24T03:17:38;3.38;;;2.55;;
9330;SDS011;4704;50.470;12.072;2023-06-24T03:20:06;2.85;;;2.65;;
9330;SDS011;4704;50.470;12.072;2023-06-24T03:22:35;4.10;;;2.80;;
9330;SDS011;4704;50.470;12.072;2023-06-24T03:25:03;3.72;;;2.95;;
9330;SDS011;4704;50.470;12.072;2023-06-24T03:27:30;3.35;;;2.90;;
9330;SDS011;4704;50.470;12.072;2023-06-24T03:29:59;3.58;;;2.78;;
9330;SDS011;4704;50.470;12.072;2023-06-24T03:32:26;3.45;;;2.65;;
9330;SDS011;4704;50.470;12.072;2023-06-24T03:34:55;3.05;;;2.85;;
9330;SDS011;4704;50.470;12.072;2023-06-24T03:37:23;2.95;;;2.33;;
9330;SDS011;4704;50.470;12.072;2023-06-24T03:39:50;3.22;;;2.58;;
9330;SDS011;4704;50.470;12.072;2023-06-24T03:42:17;3.15;;;2.38;;
9330;SDS011;4704;50.470;12.072;2023-06-24T03:44:45;2.85;;;2.63;;
9330;SDS011;4704;50.470;12.072;2023-06-24T03:47:12;3.47;;;2.80;;
9330;SDS011;4704;50.470;12.072;2023-06-24T03:49:40;2.83;;;2.60;;
9330;SDS011;4704;50.470;12.072;2023-06-24T03:52:08;2.83;;;2.63;;
9330;SDS011;4704;50.470;12.072;2023-06-24T03:54:36;3.10;;;2.90;;
9330;SDS011;4704;50.470;12.072;2023-06-24T03:57:05;3.20;;;3.00;;
9330;SDS011;4704;50.470;12.072;2023-06-24T03:59:33;3.40;;;3.10;;
9330;SDS011;4704;50.470;12.072;2023-06-24T04:02:00;4.32;;;2.80;;
9330;SDS011;4704;50.470;12.072;2023-06-24T04:04:28;3.88;;;3.40;;
9330;SDS011;4704;50.470;12.072;2023-06-24T04:06:55;3.58;;;2.85;;
9330;SDS011;4704;50.470;12.072;2023-06-24T04:09:24;3.35;;;3.05;;
9330;SDS011;4704;50.470;12.072;2023-06-24T04:11:51;3.30;;;2.47;;
9330;SDS011;4704;50.470;12.072;2023-06-24T04:14:19;2.70;;;2.50;;
9330;SDS011;4704;50.470;12.072;2023-06-24T04:16:46;3.50;;;2.53;;
9330;SDS011;4704;50.470;12.072;2023-06-24T04:19:15;3.30;;;3.08;;
9330;SDS011;4704;50.470;12.072;2023-06-24T04:21:42;3.10;;;2.90;;
9330;SDS011;4704;50.470;12.072;2023-06-24T04:24:10;6.63;;;3.13;;
9330;SDS011;4704;50.470;12.072;2023-06-24T04:26:39;3.22;;;2.97;;
9330;SDS011;4704;50.470;12.072;2023-06-24T04:29:06;3.67;;;3.38;;
9330;SDS011;4704;50.470;12.072;2023-06-24T04:31:34;3.08;;;2.88;;
9330;SDS011;4704;50.470;12.072;2023-06-24T04:34:01;3.70;;;3.40;;
9330;SDS011;4704;50.470;12.072;2023-06-24T04:36:29;4.22;;;3.83;;
9330;SDS011;4704;50.470;12.072;2023-06-24T04:38:56;4.00;;;3.70;;
9330;SDS011;4704;50.470;12.072;2023-06-24T04:41:24;3.90;;;3.60;;
9330;SDS011;4704;50.470;12.072;2023-06-24T04:43:53;4.20;;;3.80;;
9330;SDS011;4704;50.470;12.072;2023-06-24T04:46:20;4.32;;;3.92;;
9330;SDS011;4704;50.470;12.072;2023-06-24T04:48:48;6.70;;;4.25;;
9330;SDS011;4704;50.470;12.072;2023-06-24T04:51:15;3.80;;;3.53;;
9330;SDS011;4704;50.470;12.072;2023-06-24T04:53:42;4.60;;;3.83;;
9330;SDS011;4704;50.470;12.072;2023-06-24T04:56:10;3.95;;;3.60;;
9330;SDS011;4704;50.470;12.072;2023-06-24T04:58:37;4.80;;;4.10;;
9330;SDS011;4704;50.470;12.072;2023-06-24T05:01:06;4.25;;;3.85;;
9330;SDS011;4704;50.470;12.072;2023-06-24T05:03:34;4.35;;;3.95;;
9330;SDS011;4704;50.470;12.072;2023-06-24T05:06:01;5.05;;;4.10;;
9330;SDS011;4704;50.470;12.072;2023-06-24T05:08:29;4.20;;;3.80;;
9330;SDS011;4704;50.470;12.072;2023-06-24T05:10:56;4.47;;;4.07;;
9330;SDS011;4704;50.470;12.072;2023-06-24T05:13:24;5.85;;;4.03;;
9330;SDS011;4704;50.470;12.072;2023-06-24T05:15:51;5.25;;;4.75;;
9330;SDS011;4704;50.470;12.072;2023-06-24T05:18:20;5.40;;;4.57;;
9330;SDS011;4704;50.470;12.072;2023-06-24T05:20:47;4.88;;;4.38;;
9330;SDS011;4704;50.470;12.072;2023-06-24T05:23:15;4.90;;;4.50;;
9330;SDS011;4704;50.470;12.072;2023-06-24T05:25:42;4.82;;;4.38;;
9330;SDS011;4704;50.470;12.072;2023-06-24T05:28:09;4.50;;;4.20;;
9330;SDS011;4704;50.470;12.072;2023-06-24T05:30:37;5.10;;;4.60;;
9330;SDS011;4704;50.470;12.072;2023-06-24T05:33:05;4.25;;;3.95;;
9330;SDS011;4704;50.470;12.072;2023-06-24T05:35:34;4.75;;;4.35;;
9330;SDS011;4704;50.470;12.072;2023-06-24T05:38:05;4.97;;;4.55;;
9330;SDS011;4704;50.470;12.072;2023-06-24T05:40:32;5.35;;;4.85;;
9330;SDS011;4704;50.470;12.072;2023-06-24T05:42:59;4.95;;;4.45;;
9330;SDS011;4704;50.470;12.072;2023-06-24T05:45:28;5.22;;;4.80;;
9330;SDS011;4704;50.470;12.072;2023-06-24T05:47:55;6.20;;;4.78;;
9330;SDS011;4704;50.470;12.072;2023-06-24T05:50:23;4.65;;;4.25;;
9330;SDS011;4704;50.470;12.072;2023-06-24T05:52:52;4.97;;;4.65;;
9330;SDS011;4704;50.470;12.072;2023-06-24T05:55:19;4.00;;;3.70;;
9330;SDS011;4704;50.470;12.072;2023-06-24T05:57:47;4.40;;;4.10;;
9330;SDS011;4704;50.470;12.072;2023-06-24T06:00:14;5.57;;;5.07;;
9330;SDS011;4704;50.470;12.072;2023-06-24T06:02:42;5.45;;;4.95;;
9330;SDS011;4704;50.470;12.072;2023-06-24T06:05:09;5.50;;;5.03;;
9330;SDS011;4704;50.470;12.072;2023-06-24T06:07:37;5.18;;;4.78;;
9330;SDS011;4704;50.470;12.072;2023-06-24T06:10:06;5.72;;;5.22;;
9330;SDS011;4704;50.470;12.072;2023-06-24T06:12:34;5.70;;;5.20;;
9330;SDS011;4704;50.470;12.072;2023-06-24T06:15:02;5.45;;;4.95;;
9330;SDS011;4704;50.470;12.072;2023-06-24T06:17:29;5.65;;;5.15;;
9330;SDS011;4704;50.470;12.072;2023-06-24T06:19:57;5.53;;;4.97;;
9330;SDS011;4704;50.470;12.072;2023-06-24T06:22:24;5.00;;;4.50;;
9330;SDS011;4704;50.470;12.072;2023-06-24T06:24:52;5.00;;;4.60;;
9330;SDS011;4704;50.470;12.072;2023-06-24T06:27:20;5.20;;;4.70;;
9330;SDS011;4704;50.470;12.072;2023-06-24T06:29:48;5.15;;;4.75;;
9330;SDS011;4704;50.470;12.072;2023-06-24T06:32:15;6.07;;;5.57;;
9330;SDS011;4704;50.470;12.072;2023-06-24T06:34:43;5.20;;;4.80;;
9330;SDS011;4704;50.470;12.072;2023-06-24T06:37:10;5.47;;;5.00;;
9330;SDS011;4704;50.470;12.072;2023-06-24T06:39:38;5.30;;;4.90;;
9330;SDS011;4704;50.470;12.072;2023-06-24T06:42:05;5.18;;;4.78;;
9330;SDS011;4704;50.470;12.072;2023-06-24T06:44:34;6.03;;;5.40;;
9330;SDS011;4704;50.470;12.072;2023-06-24T06:47:02;5.47;;;4.97;;
9330;SDS011;4704;50.470;12.072;2023-06-24T06:49:29;6.32;;;4.80;;
9330;SDS011;4704;50.470;12.072;2023-06-24T06:51:56;5.68;;;5.18;;
9330;SDS011;4704;50.470;12.072;2023-06-24T06:54:24;5.22;;;4.72;;
9330;SDS011;4704;50.470;12.072;2023-06-24T06:56:52;5.40;;;5.00;;
9330;SDS011;4704;50.470;12.072;2023-06-24T06:59:20;5.20;;;4.80;;
9330;SDS011;4704;50.470;12.072;2023-06-24T07:01:49;5.35;;;4.95;;
9330;SDS011;4704;50.470;12.072;2023-06-24T07:04:17;5.15;;;4.65;;
9330;SDS011;4704;50.470;12.072;2023-06-24T07:06:44;4.80;;;4.40;;
9330;SDS011;4704;50.470;12.072;2023-06-24T07:09:12;5.38;;;4.85;;
9330;SDS011;4704;50.470;12.072;2023-06-24T07:11:40;5.20;;;4.70;;
9330;SDS011;4704;50.470;12.072;2023-06-24T07:14:07;5.10;;;4.70;;
9330;SDS011;4704;50.470;12.072;2023-06-24T07:16:35;5.45;;;5.05;;
9330;SDS011;4704;50.470;12.072;2023-06-24T07:19:04;5.43;;;5.00;;
9330;SDS011;4704;50.470;12.072;2023-06-24T07:21:32;5.38;;;4.88;;
9330;SDS011;4704;50.470;12.072;2023-06-24T07:23:59;5.20;;;4.75;;
9330;SDS011;4704;50.470;12.072;2023-06-24T07:26:27;5.45;;;5.05;;
9330;SDS011;4704;50.470;12.072;2023-06-24T07:28:55;4.70;;;4.38;;
9330;SDS011;4704;50.470;12.072;2023-06-24T07:31:24;6.43;;;5.20;;
9330;SDS011;4704;50.470;12.072;2023-06-24T07:33:51;4.90;;;4.50;;
9330;SDS011;4704;50.470;12.072;2023-06-24T07:36:20;4.80;;;4.40;;
9330;SDS011;4704;50.470;12.072;2023-06-24T07:38:47;4.63;;;4.30;;
9330;SDS011;4704;50.470;12.072;2023-06-24T07:41:15;4.53;;;4.18;;
9330;SDS011;4704;50.470;12.072;2023-06-24T07:43:42;5.32;;;4.75;;
9330;SDS011;4704;50.470;12.072;2023-06-24T07:46:09;4.80;;;4.40;;
9330;SDS011;4704;50.470;12.072;2023-06-24T07:48:37;4.88;;;4.47;;
9330;SDS011;4704;50.470;12.072;2023-06-24T07:51:05;4.55;;;4.25;;
9330;SDS011;4704;50.470;12.072;2023-06-24T07:53:34;5.18;;;4.78;;
9330;SDS011;4704;50.470;12.072;2023-06-24T07:56:01;4.78;;;4.38;;
9330;SDS011;4704;50.470;12.072;2023-06-24T07:58:29;4.60;;;4.28;;
9330;SDS011;4704;50.470;12.072;2023-06-24T08:00:56;4.30;;;4.00;;
9330;SDS011;4704;50.470;12.072;2023-06-24T08:03:24;4.35;;;4.05;;
9330;SDS011;4704;50.470;12.072;2023-06-24T08:05:51;4.30;;;3.90;;
9330;SDS011;4704;50.470;12.072;2023-06-24T08:08:19;3.85;;;3.55;;
9330;SDS011;4704;50.470;12.072;2023-06-24T08:10:47;4.20;;;3.90;;
9330;SDS011;4704;50.470;12.072;2023-06-24T08:13:15;4.05;;;3.75;;
9330;SDS011;4704;50.470;12.072;2023-06-24T08:15:43;4.38;;;3.97;;
9330;SDS011;4704;50.470;12.072;2023-06-24T08:18:11;4.20;;;3.90;;
9330;SDS011;4704;50.470;12.072;2023-06-24T08:20:38;3.90;;;3.70;;
9330;SDS011;4704;50.470;12.072;2023-06-24T08:23:06;3.65;;;3.35;;
9330;SDS011;4704;50.470;12.072;2023-06-24T08:25:52;4.15;;;3.85;;
9330;SDS011;4704;50.470;12.072;2023-06-24T08:28:19;4.18;;;3.83;;
9330;SDS011;4704;50.470;12.072;2023-06-24T08:30:47;4.25;;;3.95;;
9330;SDS011;4704;50.470;12.072;2023-06-24T08:33:14;4.40;;;4.00;;
9330;SDS011;4704;50.470;12.072;2023-06-24T08:35:41;5.30;;;4.25;;
9330;SDS011;4704;50.470;12.072;2023-06-24T08:38:09;4.10;;;3.80;;
9330;SDS011;4704;50.470;12.072;2023-06-24T08:40:36;3.92;;;3.63;;
9330;SDS011;4704;50.470;12.072;2023-06-24T08:43:06;4.90;;;4.40;;
9330;SDS011;4704;50.470;12.072;2023-06-24T08:45:34;4.22;;;3.83;;
9330;SDS011;4704;50.470;12.072;2023-06-24T08:48:01;4.00;;;3.70;;
9330;SDS011;4704;50.470;12.072;2023-06-24T08:50:31;3.95;;;3.65;;
9330;SDS011;4704;50.470;12.072;2023-06-24T08:53:00;3.88;;;3.58;;
9330;SDS011;4704;50.470;12.072;2023-06-24T08:55:30;4.15;;;3.75;;
9330;SDS011;4704;50.470;12.072;2023-06-24T08:57:58;4.03;;;3.63;;
9330;SDS011;4704;50.470;12.072;2023-06-24T09:00:27;4.05;;;3.75;;
9330;SDS011;4704;50.470;12.072;2023-06-24T09:02:55;4.07;;;3.78;;
9330;SDS011;4704;50.470;12.072;2023-06-24T09:05:23;3.95;;;3.65;;
9330;SDS011;4704;50.470;12.072;2023-06-24T09:07:50;3.80;;;3.50;;
9330;SDS011;4704;50.470;12.072;2023-06-24T09:10:30;3.90;;;3.60;;
9330;SDS011;4704;50.470;12.072;2023-06-24T09:12:58;3.45;;;3.15;;
9330;SDS011;4704;50.470;12.072;2023-06-24T09:15:30;4.03;;;3.70;;
9330;SDS011;4704;50.470;12.072;2023-06-24T09:17:58;4.40;;;3.63;;
9330;SDS011;4704;50.470;12.072;2023-06-24T09:20:26;4.00;;;3.70;;
9330;SDS011;4704;50.470;12.072;2023-06-24T09:22:57;4.03;;;3.72;;
9330;SDS011;4704;50.470;12.072;2023-06-24T09:25:25;4.10;;;3.80;;
9330;SDS011;4704;50.470;12.072;2023-06-24T09:27:52;4.25;;;3.85;;
9330;SDS011;4704;50.470;12.072;2023-06-24T09:30:21;3.65;;;3.42;;
9330;SDS011;4704;50.470;12.072;2023-06-24T09:32:51;4.10;;;3.80;;
9330;SDS011;4704;50.470;12.072;2023-06-24T09:35:19;4.05;;;3.65;;
9330;SDS011;4704;50.470;12.072;2023-06-24T09:37:50;3.67;;;3.38;;
9330;SDS011;4704;50.470;12.072;2023-06-24T09:40:19;3.60;;;3.30;;
9330;SDS011;4704;50.470;12.072;2023-06-24T09:42:50;3.38;;;3.17;;
9330;SDS011;4704;50.470;12.072;2023-06-24T09:45:21;4.00;;;3.60;;
9330;SDS011;4704;50.470;12.072;2023-06-24T09:47:50;3.90;;;3.60;;
9330;SDS011;4704;50.470;12.072;2023-06-24T09:50:18;3.55;;;3.35;;
9330;SDS011;4704;50.470;12.072;2023-06-24T09:52:46;3.55;;;3.28;;
9330;SDS011;4704;50.470;12.072;2023-06-24T09:55:14;4.10;;;3.80;;
9330;SDS011;4704;50.470;12.072;2023-06-24T09:57:42;4.15;;;3.85;;
9330;SDS011;4704;50.470;12.072;2023-06-24T10:00:11;3.83;;;3.40;;
9330;SDS011;4704;50.470;12.072;2023-06-24T10:02:41;4.05;;;3.75;;
9330;SDS011;4704;50.470;12.072;2023-06-24T10:05:10;3.97;;;3.67;;
9330;SDS011;4704;50.470;12.072;2023-06-24T10:07:38;3.60;;;3.40;;
9330;SDS011;4704;50.470;12.072;2023-06-24T10:10:06;3.72;;;3.42;;
9330;SDS011;4704;50.470;12.072;2023-06-24T10:12:35;4.80;;;4.40;;
9330;SDS011;4704;50.470;12.072;2023-06-24T10:15:03;4.40;;;4.10;;
9330;SDS011;4704;50.470;12.072;2023-06-24T10:17:31;3.83;;;3.53;;
9330;SDS011;4704;50.470;12.072;2023-06-24T10:19:58;4.22;;;3.90;;
9330;SDS011;4704;50.470;12.072;2023-06-24T10:22:31;4.18;;;3.88;;
9330;SDS011;4704;50.470;12.072;2023-06-24T10:24:59;4.22;;;3.90;;
9330;SDS011;4704;50.470;12.072;2023-06-24T10:27:27;4.13;;;3.83;;
9330;SDS011;4704;50.470;12.072;2023-06-24T10:30:01;3.63;;;3.33;;
9330;SDS011;4704;50.470;12.072;2023-06-24T10:32:29;4.00;;;3.70;;
9330;SDS011;4704;50.470;12.072;2023-06-24T10:35:06;4.15;;;3.85;;
9330;SDS011;4704;50.470;12.072;2023-06-24T10:37:35;3.75;;;3.45;;
9330;SDS011;4704;50.470;12.072;2023-06-24T10:40:03;3.95;;;3.65;;
9330;SDS011;4704;50.470;12.072;2023-06-24T10:42:37;4.30;;;4.00;;
9330;SDS011;4704;50.470;12.072;2023-06-24T10:45:17;4.25;;;3.85;;
9330;SDS011;4704;50.470;12.072;2023-06-24T10:47:45;3.63;;;3.33;;
9330;SDS011;4704;50.470;12.072;2023-06-24T10:50:13;3.35;;;3.15;;
9330;SDS011;4704;50.470;12.072;2023-06-24T10:52:43;3.55;;;3.25;;
9330;SDS011;4704;50.470;12.072;2023-06-24T10:55:11;4.15;;;3.75;;
9330;SDS011;4704;50.470;12.072;2023-06-24T10:57:40;3.90;;;3.60;;
9330;SDS011;4704;50.470;12.072;2023-06-24T11:00:08;3.47;;;3.28;;
9330;SDS011;4704;50.470;12.072;2023-06-24T11:02:35;3.78;;;3.47;;
9330;SDS011;4704;50.470;12.072;2023-06-24T11:05:03;3.67;;;3.38;;
9330;SDS011;4704;50.470;12.072;2023-06-24T11:07:31;4.20;;;3.85;;
9330;SDS011;4704;50.470;12.072;2023-06-24T11:10:02;3.60;;;3.30;;
9330;SDS011;4704;50.470;12.072;2023-06-24T11:12:31;3.80;;;3.50;;
9330;SDS011;4704;50.470;12.072;2023-06-24T11:15:01;4.07;;;3.78;;
9330;SDS011;4704;50.470;12.072;2023-06-24T11:17:29;4.22;;;3.85;;
9330;SDS011;4704;50.470;12.072;2023-06-24T11:19:57;3.60;;;3.30;;
9330;SDS011;4704;50.470;12.072;2023-06-24T11:22:24;3.70;;;3.40;;
9330;SDS011;4704;50.470;12.072;2023-06-24T11:24:52;4.00;;;3.70;;
9330;SDS011;4704;50.470;12.072;2023-06-24T11:27:25;3.70;;;3.30;;
9330;SDS011;4704;50.470;12.072;2023-06-24T11:29:53;3.80;;;3.50;;
9330;SDS011;4704;50.470;12.072;2023-06-24T11:32:20;3.45;;;3.22;;
9330;SDS011;4704;50.470;12.072;2023-06-24T11:34:48;3.88;;;3.58;;
9330;SDS011;4704;50.470;12.072;2023-06-24T11:37:17;3.58;;;3.28;;
9330;SDS011;4704;50.470;12.072;2023-06-24T11:39:45;3.63;;;3.40;;
9330;SDS011;4704;50.470;12.072;2023-06-24T11:42:13;3.65;;;3.35;;
9330;SDS011;4704;50.470;12.072;2023-06-24T11:44:42;3.63;;;3.33;;
9330;SDS011;4704;50.470;12.072;2023-06-24T11:47:10;3.85;;;3.28;;
9330;SDS011;4704;50.470;12.072;2023-06-24T11:49:47;3.53;;;3.22;;
9330;SDS011;4704;50.470;12.072;2023-06-24T11:52:15;3.60;;;3.30;;
9330;SDS011;4704;50.470;12.072;2023-06-24T11:54:42;3.63;;;3.33;;
9330;SDS011;4704;50.470;12.072;2023-06-24T11:57:10;3.78;;;3.47;;
9330;SDS011;4704;50.470;12.072;2023-06-24T11:59:38;3.65;;;3.35;;
9330;SDS011;4704;50.470;12.072;2023-06-24T12:02:07;3.35;;;3.15;;
9330;SDS011;4704;50.470;12.072;2023-06-24T12:04:43;3.70;;;3.40;;
9330;SDS011;4704;50.470;12.072;2023-06-24T12:07:11;3.55;;;3.25;;
9330;SDS011;4704;50.470;12.072;2023-06-24T12:09:38;3.45;;;3.20;;
9330;SDS011;4704;50.470;12.072;2023-06-24T12:12:06;3.05;;;2.85;;
9330;SDS011;4704;50.470;12.072;2023-06-24T12:14:34;3.25;;;3.00;;
9330;SDS011;4704;50.470;12.072;2023-06-24T12:17:01;3.35;;;3.05;;
9330;SDS011;4704;50.470;12.072;2023-06-24T12:19:30;4.00;;;3.20;;
9330;SDS011;4704;50.470;12.072;2023-06-24T12:21:58;3.42;;;3.20;;
9330;SDS011;4704;50.470;12.072;2023-06-24T12:24:25;3.58;;;3.28;;
9330;SDS011;4704;50.470;12.072;2023-06-24T12:26:52;3.75;;;3.22;;
9330;SDS011;4704;50.470;12.072;2023-06-24T12:29:21;4.47;;;3.45;;
9330;SDS011;4704;50.470;12.072;2023-06-24T12:31:48;4.45;;;3.17;;
9330;SDS011;4704;50.470;12.072;2023-06-24T12:34:15;3.63;;;3.25;;
9330;SDS011;4704;50.470;12.072;2023-06-24T12:36:44;5.05;;;3.30;;
9330;SDS011;4704;50.470;12.072;2023-06-24T12:39:12;4.22;;;3.15;;
9330;SDS011;4704;50.470;12.072;2023-06-24T12:41:40;3.65;;;3.08;;
9330;SDS011;4704;50.470;12.072;2023-06-24T12:44:07;4.68;;;3.08;;
9330;SDS011;4704;50.470;12.072;2023-06-24T12:46:34;4.63;;;3.00;;
9330;SDS011;4704;50.470;12.072;2023-06-24T12:49:02;3.35;;;3.05;;
9330;SDS011;4704;50.470;12.072;2023-06-24T12:51:29;3.55;;;3.10;;
9330;SDS011;4704;50.470;12.072;2023-06-24T12:53:58;3.30;;;3.00;;
9330;SDS011;4704;50.470;12.072;2023-06-24T12:56:25;3.53;;;3.10;;
9330;SDS011;4704;50.470;12.072;2023-06-24T12:58:53;3.42;;;3.08;;
9330;SDS011;4704;50.470;12.072;2023-06-24T13:01:21;3.60;;;3.30;;
9330;SDS011;4704;50.470;12.072;2023-06-24T13:03:48;4.72;;;3.10;;
9330;SDS011;4704;50.470;12.072;2023-06-24T13:06:15;3.58;;;3.08;;
9330;SDS011;4704;50.470;12.072;2023-06-24T13:08:43;3.33;;;3.03;;
9330;SDS011;4704;50.470;12.072;2023-06-24T13:11:12;3.20;;;2.90;;
9330;SDS011;4704;50.470;12.072;2023-06-24T13:13:39;3.65;;;3.28;;
9330;SDS011;4704;50.470;12.072;2023-06-24T13:16:07;3.47;;;3.17;;
9330;SDS011;4704;50.470;12.072;2023-06-24T13:18:34;2.90;;;2.70;;
9330;SDS011;4704;50.470;12.072;2023-06-24T13:21:02;3.97;;;3.45;;
9330;SDS011;4704;50.470;12.072;2023-06-24T13:23:29;2.97;;;2.78;;
9330;SDS011;4704;50.470;12.072;2023-06-24T13:25:57;3.13;;;2.92;;
9330;SDS011;4704;50.470;12.072;2023-06-24T13:28:26;3.40;;;3.10;;
9330;SDS011;4704;50.470;12.072;2023-06-24T13:30:54;3.30;;;3.00;;
9330;SDS011;4704;50.470;12.072;2023-06-24T13:33:21;2.90;;;2.70;;
9330;SDS011;4704;50.470;12.072;2023-06-24T13:35:49;3.45;;;3.15;;
9330;SDS011;4704;50.470;12.072;2023-06-24T13:38:16;3.50;;;3.20;;
9330;SDS011;4704;50.470;12.072;2023-06-24T13:40:44;3.13;;;2.92;;
9330;SDS011;4704;50.470;12.072;2023-06-24T13:43:11;3.10;;;2.90;;
9330;SDS011;4704;50.470;12.072;2023-06-24T13:45:40;3.42;;;3.13;;
9330;SDS011;4704;50.470;12.072;2023-06-24T13:48:07;3.47;;;3.10;;
9330;SDS011;4704;50.470;12.072;2023-06-24T13:50:35;3.25;;;3.05;;
9330;SDS011;4704;50.470;12.072;2023-06-24T13:53:02;3.50;;;3.20;;
9330;SDS011;4704;50.470;12.072;2023-06-24T13:55:30;3.17;;;2.95;;
9330;SDS011;4704;50.470;12.072;2023-06-24T13:57:57;3.63;;;3.30;;
9330;SDS011;4704;50.470;12.072;2023-06-24T14:00:25;3.10;;;2.88;;
9330;SDS011;4704;50.470;12.072;2023-06-24T14:02:53;3.50;;;3.17;;
9330;SDS011;4704;50.470;12.072;2023-06-24T14:05:21;3.40;;;3.20;;
9330;SDS011;4704;50.470;12.072;2023-06-24T14:07:48;3.50;;;3.20;;
9330;SDS011;4704;50.470;12.072;2023-06-24T14:10:15;3.25;;;2.90;;
9330;SDS011;4704;50.470;12.072;2023-06-24T14:12:43;3.55;;;3.25;;
9330;SDS011;4704;50.470;12.072;2023-06-24T14:15:10;3.40;;;3.20;;
9330;SDS011;4704;50.470;12.072;2023-06-24T14:17:38;3.45;;;3.15;;
9330;SDS011;4704;50.470;12.072;2023-06-24T14:20:07;3.25;;;3.00;;
9330;SDS011;4704;50.470;12.072;2023-06-24T14:22:35;3.40;;;3.10;;
9330;SDS011;4704;50.470;12.072;2023-06-24T14:25:03;3.28;;;3.08;;
9330;SDS011;4704;50.470;12.072;2023-06-24T14:27:30;3.30;;;3.10;;
9330;SDS011;4704;50.470;12.072;2023-06-24T14:29:58;3.33;;;3.03;;
9330;SDS011;4704;50.470;12.072;2023-06-24T14:32:25;3.33;;;3.03;;
9330;SDS011;4704;50.470;12.072;2023-06-24T14:34:53;3.90;;;3.50;;
9330;SDS011;4704;50.470;12.072;2023-06-24T14:37:22;3.30;;;3.10;;
9330;SDS011;4704;50.470;12.072;2023-06-24T14:39:49;3.40;;;3.10;;
9330;SDS011;4704;50.470;12.072;2023-06-24T14:42:16;3.67;;;3.38;;
9330;SDS011;4704;50.470;12.072;2023-06-24T14:44:44;3.45;;;3.15;;
9330;SDS011;4704;50.470;12.072;2023-06-24T14:47:11;3.58;;;3.28;;
9330;SDS011;4704;50.470;12.072;2023-06-24T14:49:39;3.10;;;2.90;;
9330;SDS011;4704;50.470;12.072;2023-06-24T14:52:06;3.72;;;3.38;;
9330;SDS011;4704;50.470;12.072;2023-06-24T14:54:35;3.05;;;2.85;;
9330;SDS011;4704;50.470;12.072;2023-06-24T14:57:03;3.55;;;3.20;;
9330;SDS011;4704;50.470;12.072;2023-06-24T14:59:30;3.60;;;3.30;;
9330;SDS011;4704;50.470;12.072;2023-06-24T15:01:58;3.28;;;3.08;;
9330;SDS011;4704;50.470;12.072;2023-06-24T15:04:25;3.20;;;3.00;;
9330;SDS011;4704;50.470;12.072;2023-06-24T15:06:53;3.58;;;3.28;;